createdAt,value
2023-05-08T00:02:17.601Z,101946.81
2023-05-08T00:04:45.437Z,101946.81
2023-05-08T00:07:13.252Z,101952.47
2023-05-08T00:09:42.426Z,101944.81
2023-05-08T00:12:10.260Z,101946.22
2023-05-08T00:14:38.300Z,101948.94
2023-05-08T00:17:06.201Z,101950.00
2023-05-08T00:19:34.068Z,101951.66
2023-05-08T00:22:01.842Z,101951.06
2023-05-08T00:24:29.657Z,101950.47
2023-05-08T00:26:58.795Z,101949.66
2023-05-08T00:29:26.794Z,101943.38
2023-05-08T00:31:54.790Z,101948.81
2023-05-08T00:34:23.021Z,101948.00
2023-05-08T00:36:50.764Z,101946.34
2023-05-08T00:39:18.581Z,101950.94
2023-05-08T00:41:46.758Z,101957.22
2023-05-08T00:44:16.116Z,101959.09
2023-05-08T00:46:45.686Z,101956.63
2023-05-08T00:49:14.610Z,101949.53
2023-05-08T00:51:43.382Z,101954.13
2023-05-08T00:54:12.194Z,101952.47
2023-05-08T00:56:40.206Z,101950.00
2023-05-08T00:59:13.018Z,101950.25
2023-05-08T01:01:42.595Z,101928.06
2023-05-08T01:04:11.006Z,101942.34
2023-05-08T01:06:38.931Z,101942.56
2023-05-08T01:09:07.803Z,101940.34
2023-05-08T01:11:42.527Z,101939.25
2023-05-08T01:14:17.618Z,101941.97
2023-05-08T01:16:57.276Z,101947.66
2023-05-08T01:19:54.216Z,101940.56
2023-05-08T01:22:35.140Z,101938.91
2023-05-08T01:25:41.689Z,101932.66
2023-05-08T01:28:31.592Z,101932.66
2023-05-08T01:31:06.702Z,101939.97
2023-05-08T01:33:42.282Z,101937.50
2023-05-08T01:36:21.811Z,101944.00
2023-05-08T01:38:57.228Z,101932.53
2023-05-08T01:41:28.744Z,101939.63
2023-05-08T01:44:07.267Z,101942.56
2023-05-08T01:46:35.186Z,101937.16
2023-05-08T01:49:10.668Z,101939.88
2023-05-08T01:51:50.196Z,101940.69
2023-05-08T01:54:21.350Z,101940.09
2023-05-08T01:56:51.515Z,101942.56
2023-05-08T01:59:23.205Z,101942.81
2023-05-08T02:01:55.167Z,101942.81
2023-05-08T02:04:25.138Z,101943.88
2023-05-08T02:06:54.644Z,101938.44
2023-05-08T02:09:24.984Z,101942.22
2023-05-08T02:11:54.475Z,101939.63
2023-05-08T02:14:23.733Z,101937.38
2023-05-08T02:16:53.770Z,101953.31
2023-05-08T02:19:26.024Z,101950.59
2023-05-08T02:21:56.208Z,101958.97
2023-05-08T02:24:25.871Z,101962.75
2023-05-08T02:26:54.713Z,101957.34
2023-05-08T02:29:24.184Z,101944.09
2023-05-08T02:31:54.558Z,101952.97
2023-05-08T02:34:24.703Z,101951.31
2023-05-08T02:36:54.526Z,101954.03
2023-05-08T02:39:26.077Z,101954.03
2023-05-08T02:41:53.926Z,101962.41
2023-05-08T02:44:21.937Z,101957.22
2023-05-08T02:46:57.316Z,101958.28
2023-05-08T02:49:33.128Z,101951.19
2023-05-08T02:52:07.249Z,101953.91
2023-05-08T02:54:43.399Z,101960.16
2023-05-08T02:57:19.830Z,101957.69
2023-05-08T02:59:58.054Z,101956.03
2023-05-08T03:02:33.439Z,101953.56
2023-05-08T03:05:08.041Z,101957.09
2023-05-08T03:07:39.980Z,101952.69
2023-05-08T03:10:13.097Z,101958.34
2023-05-08T03:12:44.525Z,101956.69
2023-05-08T03:15:24.072Z,101950.44
2023-05-08T03:17:55.959Z,101949.63
2023-05-08T03:20:28.201Z,101947.97
2023-05-08T03:22:57.160Z,101946.06
2023-05-08T03:25:26.114Z,101953.63
2023-05-08T03:27:54.939Z,101950.91
2023-05-08T03:30:23.470Z,101945.72
2023-05-08T03:32:53.846Z,101948.44
2023-05-08T03:35:23.784Z,101950.31
2023-05-08T03:37:53.909Z,101942.19
2023-05-08T03:40:21.742Z,101948.66
2023-05-08T03:42:51.105Z,101942.19
2023-05-08T03:45:20.696Z,101938.63
2023-05-08T03:47:49.445Z,101947.03
2023-05-08T03:50:17.527Z,101947.84
2023-05-08T03:52:45.390Z,101938.06
2023-05-08T03:55:14.540Z,101936.41
2023-05-08T03:57:51.417Z,101936.41
2023-05-08T04:00:30.236Z,101949.13
2023-05-08T04:03:10.061Z,101947.50
2023-05-08T04:05:42.153Z,101939.59
2023-05-08T04:08:17.421Z,101942.28
2023-05-08T04:10:51.041Z,101943.13
2023-05-08T04:13:24.759Z,101946.06
2023-05-08T04:15:55.132Z,101954.44
2023-05-08T04:18:29.363Z,101956.09
2023-05-08T04:20:59.197Z,101952.56
2023-05-08T04:23:29.692Z,101953.63
2023-05-08T04:26:01.176Z,101953.03
2023-05-08T04:28:29.485Z,101951.38
2023-05-08T04:30:58.557Z,101953.25
2023-05-08T04:33:26.586Z,101964.13
2023-05-08T04:35:55.318Z,101958.91
2023-05-08T04:38:23.219Z,101970.59
2023-05-08T04:40:51.150Z,101972.72
2023-05-08T04:43:20.452Z,101960.31
2023-05-08T04:45:48.307Z,101973.78
2023-05-08T04:48:16.384Z,101976.50
2023-05-08T04:50:44.453Z,101976.72
2023-05-08T04:53:12.307Z,101982.16
2023-05-08T04:55:40.194Z,101980.50
2023-05-08T04:58:08.032Z,101988.03
2023-05-08T05:00:37.541Z,101987.81
2023-05-08T05:03:05.413Z,101986.16
2023-05-08T05:05:33.410Z,101983.44
2023-05-08T05:08:01.272Z,101997.00
2023-05-08T05:10:29.215Z,101989.94
2023-05-08T05:12:57.093Z,101999.94
2023-05-08T05:15:24.915Z,101998.28
2023-05-08T05:17:54.243Z,102005.59
2023-05-08T05:20:22.109Z,102007.25
2023-05-08T05:22:49.850Z,102004.78
2023-05-08T05:25:17.801Z,102011.03
2023-05-08T05:27:45.613Z,102012.09
2023-05-08T05:30:14.015Z,102017.53
2023-05-08T05:32:42.288Z,102012.09
2023-05-08T05:35:12.408Z,102012.91
2023-05-08T05:37:40.545Z,102022.13
2023-05-08T05:40:09.507Z,102022.13
2023-05-08T05:42:37.720Z,102018.56
2023-05-08T05:45:06.337Z,102017.75
2023-05-08T05:47:34.205Z,102021.28
2023-05-08T05:50:02.022Z,102031.31
2023-05-08T05:52:31.618Z,102024.84
2023-05-08T05:54:59.422Z,102021.28
2023-05-08T05:57:27.395Z,102016.19
2023-05-08T05:59:55.137Z,102030.50
2023-05-08T06:02:23.246Z,102024.22
2023-05-08T06:04:52.466Z,102041.09
2023-05-08T06:07:21.097Z,102038.41
2023-05-08T06:09:51.235Z,102036.75
2023-05-08T06:12:19.317Z,102029.44
2023-05-08T06:14:47.195Z,102040.28
2023-05-08T06:17:15.064Z,102041.94
2023-05-08T06:19:42.902Z,102037.56
2023-05-08T06:22:10.691Z,102035.91
2023-05-08T06:24:38.517Z,102030.50
2023-05-08T06:27:07.629Z,102034.84
2023-05-08T06:29:35.610Z,102034.03
2023-05-08T06:32:03.398Z,102038.41
2023-05-08T06:34:31.568Z,102032.97
2023-05-08T06:36:59.404Z,102044.66
2023-05-08T06:39:27.397Z,102039.22
2023-05-08T06:41:55.189Z,102033.78
2023-05-08T06:44:24.323Z,102041.09
2023-05-08T06:46:52.131Z,102045.94
2023-05-08T06:49:20.538Z,102053.84
2023-05-08T06:51:48.483Z,102051.97
2023-05-08T06:54:16.313Z,102045.72
2023-05-08T06:56:44.241Z,102055.50
2023-05-08T06:59:12.294Z,102059.28
2023-05-08T07:01:41.790Z,102060.94
2023-05-08T07:04:09.728Z,102064.47
2023-05-08T07:06:37.568Z,102064.47
2023-05-08T07:09:05.548Z,102063.63
2023-05-08T07:11:33.370Z,102069.06
2023-05-08T07:14:01.260Z,102070.13
2023-05-08T07:16:29.448Z,102061.75
2023-05-08T07:18:58.684Z,102063.63
2023-05-08T07:21:26.804Z,102069.06
2023-05-08T07:23:54.929Z,102066.34
2023-05-08T07:26:22.890Z,102066.34
2023-05-08T07:28:53.852Z,102062.81
2023-05-08T07:31:21.890Z,102066.34
2023-05-08T07:33:49.831Z,102064.47
2023-05-08T07:36:18.932Z,102068.84
2023-05-08T07:38:46.766Z,102066.13
2023-05-08T07:41:14.614Z,102050.66
2023-05-08T07:43:43.656Z,102063.19
2023-05-08T07:46:17.955Z,102059.63
2023-05-08T07:48:45.822Z,102055.03
2023-05-08T07:51:14.410Z,102053.38
2023-05-08T07:53:43.669Z,102059.41
2023-05-08T07:56:11.469Z,102058.34
2023-05-08T07:58:39.474Z,102056.47
2023-05-08T08:01:07.315Z,102068.97
2023-05-08T08:03:35.276Z,102059.19
2023-05-08T08:06:03.180Z,102064.59
2023-05-08T08:08:31.090Z,102072.50
2023-05-08T08:11:01.720Z,102064.38
2023-05-08T08:13:31.757Z,102058.94
2023-05-08T08:15:59.794Z,102057.06
2023-05-08T08:18:27.623Z,102060.59
2023-05-08T08:20:55.423Z,102059.53
2023-05-08T08:23:23.214Z,102065.78
2023-05-08T08:25:51.498Z,102067.44
2023-05-08T08:28:20.747Z,102062.03
2023-05-08T08:30:48.608Z,102059.31
2023-05-08T08:33:18.289Z,102052.81
2023-05-08T08:35:46.898Z,102055.53
2023-05-08T08:38:14.723Z,102052.59
2023-05-08T08:40:43.590Z,102049.88
2023-05-08T08:43:11.460Z,102054.03
2023-05-08T08:45:40.762Z,102037.47
2023-05-08T08:48:12.480Z,102054.84
2023-05-08T08:50:44.019Z,102051.91
2023-05-08T08:53:17.049Z,102050.00
2023-05-08T08:55:48.195Z,102050.63
2023-05-08T08:58:22.947Z,102041.63
2023-05-08T09:00:54.840Z,102044.13
2023-05-08T09:03:23.116Z,102043.88
2023-05-08T09:05:51.167Z,102049.09
2023-05-08T09:08:19.803Z,102048.84
2023-05-08T09:10:48.182Z,102044.25
2023-05-08T09:13:17.343Z,102054.88
2023-05-08T09:15:46.906Z,102053.81
2023-05-08T09:18:16.042Z,102051.09
2023-05-08T09:20:45.580Z,102051.69
2023-05-08T09:23:14.805Z,102056.91
2023-05-08T09:25:43.745Z,102052.28
2023-05-08T09:28:18.432Z,102055.63
2023-05-08T09:30:53.952Z,102049.16
2023-05-08T09:33:26.228Z,102044.38
2023-05-08T09:35:54.366Z,102053.06
2023-05-08T09:38:36.368Z,102057.66
2023-05-08T09:41:09.255Z,102052.59
2023-05-08T09:43:37.492Z,102051.75
2023-05-08T09:46:23.163Z,102053.41
2023-05-08T09:48:53.899Z,102056.94
2023-05-08T09:51:21.985Z,102055.66
2023-05-08T09:53:52.800Z,102058.38
2023-05-08T09:56:36.587Z,102052.72
2023-05-08T09:59:06.720Z,102059.56
2023-05-08T10:01:36.561Z,102055.78
2023-05-08T10:04:06.460Z,102062.88
2023-05-08T10:06:36.362Z,102058.03
2023-05-08T10:09:21.885Z,102059.69
2023-05-08T10:11:53.120Z,102070.31
2023-05-08T10:14:22.815Z,102071.16
2023-05-08T10:16:52.910Z,102062.16
2023-05-08T10:19:23.493Z,102059.47
2023-05-08T10:21:52.775Z,102058.63
2023-05-08T10:24:22.077Z,102065.72
2023-05-08T10:27:06.867Z,102064.88
2023-05-08T10:29:42.577Z,102064.88
2023-05-08T10:32:11.573Z,102065.72
2023-05-08T10:34:42.726Z,102061.94
2023-05-08T10:37:11.345Z,102060.88
2023-05-08T10:39:41.448Z,102060.88
2023-05-08T10:42:09.570Z,102057.94
2023-05-08T10:44:38.185Z,102059.81
2023-05-08T10:47:16.220Z,102063.13
2023-05-08T10:49:52.791Z,102058.53
2023-05-08T10:52:26.135Z,102059.34
2023-05-08T10:55:19.892Z,102054.75
2023-05-08T10:58:30.731Z,102051.19
2023-05-08T11:01:16.117Z,102050.97
2023-05-08T11:03:50.666Z,102048.84
2023-05-08T11:06:44.357Z,102050.50
2023-05-08T11:09:16.904Z,102045.88
2023-05-08T11:11:55.892Z,102045.41
2023-05-08T11:14:24.907Z,102036.44
2023-05-08T11:17:09.101Z,102046.59
2023-05-08T11:19:39.045Z,102042.81
2023-05-08T11:22:24.857Z,102039.03
2023-05-08T11:25:05.079Z,102026.28
2023-05-08T11:27:38.204Z,102030.41
2023-05-08T11:30:24.528Z,102025.59
2023-05-08T11:33:00.261Z,102016.97
2023-05-08T11:35:53.036Z,102019.44
2023-05-08T11:38:41.013Z,102019.19
2023-05-08T11:41:09.821Z,102010.09
2023-05-08T11:44:20.632Z,102013.28
2023-05-08T11:46:53.845Z,102014.72
2023-05-08T11:49:27.397Z,101994.63
2023-05-08T11:52:00.347Z,101997.81
2023-05-08T11:54:31.598Z,102013.75
2023-05-08T11:56:59.694Z,102008.88
2023-05-08T11:59:27.784Z,101987.28
2023-05-08T12:04:26.428Z,101997.28
2023-05-08T12:06:59.723Z,102000.13
2023-05-08T12:09:29.020Z,101996.91
2023-05-08T12:11:59.971Z,101995.63
2023-05-08T12:14:28.045Z,101981.78
2023-05-08T12:16:55.962Z,101985.69
2023-05-08T12:19:23.830Z,101987.09
2023-05-08T12:21:51.653Z,101982.25
2023-05-08T12:24:23.247Z,101989.91
2023-05-08T12:26:55.592Z,101970.53
2023-05-08T12:29:23.787Z,101983.41
2023-05-08T12:31:52.240Z,101982.44
2023-05-08T12:34:20.770Z,101980.88
2023-05-08T12:36:48.693Z,101975.78
2023-05-08T12:39:18.232Z,101976.59
2023-05-08T12:41:49.879Z,101975.28
2023-05-08T12:44:25.028Z,101966.06
2023-05-08T12:46:53.927Z,101969.63
2023-05-08T12:49:26.287Z,101941.50
2023-05-08T12:52:02.382Z,101957.19
2023-05-08T12:54:34.321Z,101950.19
2023-05-08T12:57:02.075Z,101946.16
2023-05-08T12:59:33.282Z,101949.78
2023-05-08T13:02:01.113Z,101936.75
2023-05-08T13:04:29.214Z,101930.97
2023-05-08T13:06:57.537Z,101942.53
2023-05-08T13:09:25.412Z,101942.28
2023-05-08T13:11:53.166Z,101940.41
2023-05-08T13:14:21.014Z,101935.28
2023-05-08T13:16:51.805Z,101947.56
2023-05-08T13:19:20.048Z,101940.25
2023-05-08T13:21:47.905Z,101945.44
2023-05-08T13:24:16.032Z,101944.38
2023-05-08T13:26:44.153Z,101944.38
2023-05-08T13:29:11.982Z,101938.66
2023-05-08T13:31:39.844Z,101934.06
2023-05-08T13:34:10.069Z,101930.25
2023-05-08T13:36:37.978Z,101931.66
2023-05-08T13:39:06.560Z,101928.44
2023-05-08T13:41:34.372Z,101920.03
2023-05-08T13:44:02.180Z,101915.16
2023-05-08T13:46:30.072Z,101914.94
2023-05-08T13:48:57.872Z,101923.41
2023-05-08T13:51:27.226Z,101926.72
2023-05-08T13:53:55.013Z,101926.22
2023-05-08T13:56:22.868Z,101922.44
2023-05-08T13:58:50.727Z,101924.91
2023-05-08T14:01:26.653Z,101921.94
2023-05-08T14:03:55.043Z,101920.84
2023-05-08T14:06:23.417Z,101928.19
2023-05-08T14:08:54.631Z,101915.41
2023-05-08T14:11:24.906Z,101915.16
2023-05-08T14:13:52.761Z,101911.13
2023-05-08T14:16:20.603Z,101906.50
2023-05-08T14:18:48.749Z,101899.97
2023-05-08T14:21:16.618Z,101901.63
2023-05-08T14:23:45.107Z,101904.34
2023-05-08T14:26:14.292Z,101910.03
2023-05-08T14:28:42.114Z,101902.69
2023-05-08T14:31:10.045Z,101900.81
2023-05-08T14:33:37.888Z,101906.03
2023-05-08T14:36:06.064Z,101885.13
2023-05-08T14:38:33.898Z,101909.91
2023-05-08T14:41:04.270Z,101905.84
2023-05-08T14:43:34.343Z,101910.31
2023-05-08T14:46:02.325Z,101911.13
2023-05-08T14:48:30.239Z,101902.13
2023-05-08T14:50:58.627Z,101901.31
2023-05-08T14:53:26.770Z,101901.88
2023-05-08T14:55:55.066Z,101904.94
2023-05-08T14:58:23.555Z,101901.38
2023-05-08T15:00:52.779Z,101902.72
2023-05-08T15:03:20.698Z,101904.59
2023-05-08T15:05:48.567Z,101904.59
2023-05-08T15:08:16.664Z,101901.06
2023-05-08T15:10:44.647Z,101909.22
2023-05-08T15:13:12.569Z,101904.34
2023-05-08T15:15:40.476Z,101896.50
2023-05-08T15:18:09.666Z,101888.66
2023-05-08T15:20:37.566Z,101897.91
2023-05-08T15:23:05.641Z,101889.72
2023-05-08T15:25:33.459Z,101897.09
2023-05-08T15:28:01.490Z,101891.88
2023-05-08T15:30:29.332Z,101899.81
2023-05-08T15:32:57.234Z,101890.56
2023-05-08T15:35:26.697Z,101875.97
2023-05-08T15:37:55.248Z,101888.91
2023-05-08T15:40:23.174Z,101893.78
2023-05-08T15:42:50.954Z,101886.44
2023-05-08T15:45:18.806Z,101896.84
2023-05-08T15:47:46.937Z,101893.03
2023-05-08T15:50:15.687Z,101889.47
2023-05-08T15:52:44.907Z,101893.59
2023-05-08T15:55:13.246Z,101897.47
2023-05-08T15:57:41.265Z,101878.34
2023-05-08T16:00:10.325Z,101895.06
2023-05-08T16:02:38.144Z,101895.06
2023-05-08T16:05:06.527Z,101898.69
2023-05-08T16:07:34.321Z,101894.88
2023-05-08T16:10:05.340Z,101891.66
2023-05-08T16:12:34.540Z,101889.69
2023-05-08T16:15:02.389Z,101890.75
2023-05-08T16:17:30.265Z,101892.66
2023-05-08T16:19:58.135Z,101888.53
2023-05-08T16:22:26.068Z,101890.44
2023-05-08T16:24:54.654Z,101883.59
2023-05-08T16:27:23.847Z,101885.75
2023-05-08T16:29:51.627Z,101892.03
2023-05-08T16:32:19.421Z,101889.56
2023-05-08T16:34:47.400Z,101894.19
2023-05-08T16:37:15.134Z,101891.69
2023-05-08T16:39:42.860Z,101887.34
2023-05-08T16:42:10.734Z,101884.03
2023-05-08T16:44:40.189Z,101878.59
2023-05-08T16:47:08.044Z,101878.59
2023-05-08T16:49:36.215Z,101880.22
2023-05-08T16:52:04.026Z,101875.03
2023-05-08T16:54:32.038Z,101871.50
2023-05-08T16:57:00.025Z,101870.41
2023-05-08T16:59:27.925Z,101863.06
2023-05-08T17:01:57.127Z,101866.94
2023-05-08T17:04:25.003Z,101854.97
2023-05-08T17:06:53.050Z,101854.97
2023-05-08T17:09:20.830Z,101854.22
2023-05-08T17:11:48.581Z,101852.06
2023-05-08T17:14:16.463Z,101855.59
2023-05-08T17:16:44.450Z,101852.06
2023-05-08T17:19:13.759Z,101855.59
2023-05-08T17:21:41.600Z,101851.81
2023-05-08T17:24:09.866Z,101855.59
2023-05-08T17:26:37.682Z,101853.94
2023-05-08T17:29:05.764Z,101860.22
2023-05-08T17:31:33.544Z,101855.91
2023-05-08T17:34:01.720Z,101859.72
2023-05-08T17:36:31.013Z,101856.16
2023-05-08T17:38:58.854Z,101857.25
2023-05-08T17:41:26.601Z,101860.22
2023-05-08T17:43:54.996Z,101868.41
2023-05-08T17:46:23.039Z,101872.19
2023-05-08T17:48:50.896Z,101886.66
2023-05-08T17:51:18.872Z,101888.53
2023-05-08T17:53:48.464Z,101895.88
2023-05-08T17:56:20.313Z,101878.59
2023-05-08T17:58:48.286Z,101895.81
2023-05-08T18:01:16.108Z,101890.38
2023-05-08T18:03:45.288Z,101897.16
2023-05-08T18:06:16.103Z,101897.41
2023-05-08T18:08:44.176Z,101891.97
2023-05-08T18:11:21.234Z,101891.06
2023-05-08T18:13:49.444Z,101895.44
2023-05-08T18:16:19.099Z,101893.78
2023-05-08T18:18:47.003Z,101885.03
2023-05-08T18:21:15.074Z,101879.28
2023-05-08T18:23:43.081Z,101874.06
2023-05-08T18:26:15.035Z,101877.03
2023-05-08T18:28:45.249Z,101861.97
2023-05-08T18:31:13.845Z,101860.97
2023-05-08T18:33:41.715Z,101867.47
2023-05-08T18:36:09.520Z,101874.00
2023-05-08T18:38:37.468Z,101885.16
2023-05-08T18:41:07.163Z,101886.22
2023-05-08T18:43:35.214Z,101879.38
2023-05-08T18:46:12.241Z,101880.44
2023-05-08T18:48:40.593Z,101883.41
2023-05-08T18:51:08.419Z,101867.91
2023-05-08T18:53:38.614Z,101881.53
2023-05-08T18:56:07.235Z,101886.97
2023-05-08T18:58:35.278Z,101873.56
2023-05-08T19:01:03.122Z,101874.66
2023-05-08T19:03:32.480Z,101864.00
2023-05-08T19:06:00.309Z,101877.63
2023-05-08T19:08:28.234Z,101873.25
2023-05-08T19:10:56.098Z,101868.63
2023-05-08T19:13:24.362Z,101871.59
2023-05-08T19:15:54.567Z,101861.53
2023-05-08T19:18:22.420Z,101870.78
2023-05-08T19:20:51.552Z,101867.22
2023-05-08T19:23:19.438Z,101869.94
2023-05-08T19:25:47.272Z,101869.94
2023-05-08T19:28:15.151Z,101880.03
2023-05-08T19:30:42.972Z,101877.53
2023-05-08T19:33:10.817Z,101872.94
2023-05-08T19:35:38.699Z,101873.19
2023-05-08T19:38:08.174Z,101873.44
2023-05-08T19:40:48.038Z,101874.50
2023-05-08T19:43:20.320Z,101873.09
2023-05-08T19:45:48.323Z,101879.63
2023-05-08T19:48:17.841Z,101878.78
2023-05-08T19:50:46.260Z,101882.59
2023-05-08T19:53:15.453Z,101868.41
2023-05-08T19:55:43.237Z,101871.38
2023-05-08T19:58:13.887Z,101877.06
2023-05-08T20:00:41.860Z,101878.13
2023-05-08T20:03:09.815Z,101869.31
2023-05-08T20:05:37.757Z,101884.06
2023-05-08T20:08:05.840Z,101888.13
2023-05-08T20:10:35.241Z,101893.56
2023-05-08T20:13:03.285Z,101900.06
2023-05-08T20:15:31.166Z,101904.94
2023-05-08T20:17:59.839Z,101903.53
2023-05-08T20:20:29.769Z,101906.50
2023-05-08T20:22:58.003Z,101905.09
2023-05-08T20:25:25.915Z,101907.00
2023-05-08T20:27:55.163Z,101911.88
2023-05-08T20:30:23.838Z,101916.47
2023-05-08T20:32:52.016Z,101911.53
2023-05-08T20:35:20.053Z,101904.69
2023-05-08T20:37:49.405Z,101912.28
2023-05-08T20:40:17.405Z,101912.50
2023-05-08T20:42:45.274Z,101907.31
2023-05-08T20:45:14.551Z,101905.91
2023-05-08T20:47:42.525Z,101908.63
2023-05-08T20:50:10.773Z,101917.03
2023-05-08T20:52:40.582Z,101912.44
2023-05-08T20:55:10.404Z,101910.78
2023-05-08T20:57:38.754Z,101915.41
2023-05-08T21:00:08.458Z,101915.63
2023-05-08T21:02:40.130Z,101912.91
2023-05-08T21:05:08.529Z,101903.94
2023-05-08T21:07:36.467Z,101896.03
2023-05-08T21:10:05.618Z,101879.28
2023-05-08T21:12:33.399Z,101893.31
2023-05-08T21:15:01.710Z,101893.31
2023-05-08T21:17:29.514Z,101882.66
2023-05-08T21:19:58.851Z,101882.66
2023-05-08T21:22:26.790Z,101882.91
2023-05-08T21:24:54.596Z,101882.91
2023-05-08T21:27:22.371Z,101881.25
2023-05-08T21:29:50.124Z,101876.06
2023-05-08T21:32:18.041Z,101880.69
2023-05-08T21:34:45.872Z,101889.91
2023-05-08T21:37:15.171Z,101877.38
2023-05-08T21:39:43.034Z,101877.63
2023-05-08T21:42:11.444Z,101881.41
2023-05-08T21:44:39.209Z,101873.50
2023-05-08T21:47:07.242Z,101868.31
2023-05-08T21:49:34.974Z,101868.56
2023-05-08T21:52:02.760Z,101862.28
2023-05-08T21:54:32.093Z,101857.09
2023-05-08T21:56:59.844Z,101851.66
2023-05-08T21:59:27.621Z,101854.63
2023-05-08T22:01:55.547Z,101849.69
2023-05-08T22:04:23.412Z,101840.69
2023-05-08T22:06:51.303Z,101840.13
2023-05-08T22:09:19.273Z,101834.09
2023-05-08T22:11:48.553Z,101829.47
2023-05-08T22:14:16.872Z,101832.44
2023-05-08T22:16:44.751Z,101840.59
2023-05-08T22:19:12.546Z,101837.31
2023-05-08T22:21:40.372Z,101828.31
2023-05-08T22:24:09.100Z,101823.13
2023-05-08T22:26:36.898Z,101816.88
2023-05-08T22:29:08.272Z,101818.75
2023-05-08T22:31:36.270Z,101815.22
2023-05-08T22:34:04.263Z,101826.09
2023-05-08T22:36:32.646Z,101819.00
2023-05-08T22:39:01.109Z,101817.31
2023-05-08T22:41:30.898Z,101814.59
2023-05-08T22:43:58.842Z,101813.78
2023-05-08T22:46:28.272Z,101799.63
2023-05-08T22:48:56.181Z,101801.50
2023-05-08T22:51:24.055Z,101791.94
2023-05-08T22:53:52.170Z,101799.03
2023-05-08T22:56:20.039Z,101798.22
2023-05-08T22:58:48.175Z,101786.50
2023-05-08T23:01:17.463Z,101794.66
2023-05-08T23:03:47.336Z,101790.28
2023-05-08T23:06:15.114Z,101785.94
2023-05-08T23:08:42.954Z,101785.94
2023-05-08T23:11:10.906Z,101769.78
2023-05-08T23:13:38.708Z,101774.47
2023-05-08T23:16:07.362Z,101772.84
2023-05-08T23:18:35.217Z,101761.13
2023-05-08T23:21:08.029Z,101764.09
2023-05-08T23:23:36.331Z,101748.88
2023-05-08T23:26:05.153Z,101744.50
2023-05-08T23:28:33.994Z,101734.94
2023-05-08T23:31:02.140Z,101734.94
2023-05-08T23:33:29.976Z,101734.38
2023-05-08T23:35:58.952Z,101729.34
2023-05-08T23:38:28.130Z,101738.16
2023-05-08T23:40:56.082Z,101741.09
2023-05-08T23:43:23.849Z,101730.50
2023-05-08T23:45:51.820Z,101728.84
2023-05-08T23:48:19.622Z,101727.19
2023-05-08T23:50:48.215Z,101733.69
2023-05-08T23:53:16.598Z,101727.69
2023-05-08T23:55:46.749Z,101724.97
2023-05-08T23:58:14.523Z,101714.28
